createdAt,value
2018-06-07T00:00:01.596Z,1014.5
2018-06-07T00:05:01.327Z,1014.5
2018-06-07T00:10:01.614Z,1014.5
2018-06-07T00:15:01.467Z,1014.5
2018-06-07T00:20:01.444Z,1014.6
2018-06-07T00:25:01.366Z,1014.5
2018-06-07T00:30:01.568Z,1014.5
2018-06-07T00:35:01.567Z,1014.5
2018-06-07T00:40:01.323Z,1014.5
2018-06-07T00:45:01.483Z,1014.5
2018-06-07T00:50:01.387Z,1014.6
2018-06-07T00:55:01.419Z,1014.5
2018-06-07T01:00:01.378Z,1014.5
2018-06-07T01:05:01.253Z,1014.6
2018-06-07T01:10:01.365Z,1014.6
2018-06-07T01:15:01.590Z,1014.7
2018-06-07T01:20:01.418Z,1014.7
2018-06-07T01:25:01.248Z,1014.7
2018-06-07T01:30:01.520Z,1014.7
2018-06-07T01:35:01.238Z,1014.8
2018-06-07T01:40:01.269Z,1014.8
2018-06-07T01:45:01.384Z,1014.8
2018-06-07T01:50:01.336Z,1014.8
2018-06-07T01:55:01.429Z,1014.8
2018-06-07T02:00:01.302Z,1014.8
2018-06-07T02:05:01.307Z,1014.8
2018-06-07T02:10:01.216Z,1014.7
2018-06-07T02:15:01.173Z,1014.7
2018-06-07T02:20:01.453Z,1014.6
2018-06-07T02:25:01.231Z,1014.5
2018-06-07T02:30:01.152Z,1014.6
2018-06-07T02:35:01.088Z,1014.6
2018-06-07T02:40:01.386Z,1014.7
2018-06-07T02:45:01.148Z,1014.6
2018-06-07T02:50:01.272Z,1014.6
2018-06-07T02:55:01.379Z,1014.7
2018-06-07T03:00:01.165Z,1014.7
2018-06-07T03:05:01.227Z,1014.7
2018-06-07T03:10:01.024Z,1014.7
2018-06-07T03:15:01.404Z,1014.8
2018-06-07T03:20:01.318Z,1014.8
2018-06-07T03:25:01.395Z,1014.8
2018-06-07T03:30:01.182Z,1014.8
2018-06-07T03:35:01.345Z,1014.8
2018-06-07T03:40:01.426Z,1014.9
2018-06-07T03:45:01.277Z,1014.8
2018-06-07T03:50:01.041Z,1014.8
2018-06-07T03:55:01.282Z,1014.8
2018-06-07T04:00:01.356Z,1014.8
2018-06-07T04:05:01.341Z,1014.9
2018-06-07T04:10:01.203Z,1015
2018-06-07T04:15:01.260Z,1015
2018-06-07T04:20:01.300Z,1015
2018-06-07T04:25:00.978Z,1015
2018-06-07T04:30:00.938Z,1015
2018-06-07T04:35:01.062Z,1015
2018-06-07T04:40:01.101Z,1015.1
2018-06-07T04:45:01.041Z,1015.2
2018-06-07T04:50:01.285Z,1015.2
2018-06-07T04:55:01.207Z,1015.2
2018-06-07T05:00:01.021Z,1015.3
2018-06-07T05:05:01.036Z,1015.3
2018-06-07T05:10:00.931Z,1015.4
2018-06-07T05:15:01.143Z,1015.5
2018-06-07T05:20:01.273Z,1015.6
2018-06-07T05:25:01.556Z,1015.6
2018-06-07T05:30:01.140Z,1015.7
2018-06-07T05:35:00.905Z,1015.7
2018-06-07T05:40:01.058Z,1015.7
2018-06-07T05:45:00.956Z,1015.7
2018-06-07T05:50:01.196Z,1015.8
2018-06-07T05:55:00.918Z,1015.7
2018-06-07T06:00:01.032Z,1015.7
2018-06-07T06:05:00.974Z,1015.8
2018-06-07T06:10:00.913Z,1015.7
2018-06-07T06:15:01.007Z,1015.8
2018-06-07T06:20:01.029Z,1015.8
2018-06-07T06:25:00.841Z,1015.8
2018-06-07T06:30:01.079Z,1015.8
2018-06-07T06:35:00.904Z,1015.8
2018-06-07T06:40:00.865Z,1015.9
2018-06-07T06:45:00.952Z,1015.9
2018-06-07T06:50:00.860Z,1015.9
2018-06-07T06:55:01.058Z,1016
2018-06-07T07:00:00.854Z,1015.9
2018-06-07T07:05:00.906Z,1015.9
2018-06-07T07:10:00.895Z,1016
2018-06-07T07:15:01.066Z,1015.9
2018-06-07T07:20:00.771Z,1016
2018-06-07T07:25:00.818Z,1015.9
2018-06-07T07:30:00.759Z,1015.9
2018-06-07T07:35:01.063Z,1015.8
2018-06-07T07:40:00.938Z,1015.8
2018-06-07T07:45:01.052Z,1015.8
2018-06-07T07:50:00.750Z,1015.8
2018-06-07T07:55:00.839Z,1015.8
2018-06-07T08:00:00.859Z,1015.8
2018-06-07T08:05:01.001Z,1015.9
2018-06-07T08:10:00.930Z,1015.9
2018-06-07T08:15:01.041Z,1015.9
2018-06-07T08:20:01.075Z,1016
2018-06-07T08:25:01.224Z,1016
2018-06-07T08:30:00.657Z,1016.1
2018-06-07T08:35:00.781Z,1016.1
2018-06-07T08:40:00.909Z,1016.1
2018-06-07T08:45:00.963Z,1016.1
2018-06-07T08:50:01.041Z,1016.1
2018-06-07T08:55:00.973Z,1016.2
2018-06-07T09:00:00.815Z,1016.2
2018-06-07T09:05:00.910Z,1016.2
2018-06-07T09:10:00.690Z,1016.3
2018-06-07T09:15:00.897Z,1016.3
2018-06-07T09:20:00.786Z,1016.3
2018-06-07T09:25:00.878Z,1016.3
2018-06-07T09:30:00.747Z,1016.4
2018-06-07T09:35:00.906Z,1016.4
2018-06-07T09:40:00.800Z,1016.3
2018-06-07T09:45:00.822Z,1016.2
2018-06-07T09:50:00.570Z,1016.2
2018-06-07T09:55:00.577Z,1016.4
2018-06-07T10:00:00.828Z,1016.4
2018-06-07T10:05:00.920Z,1016.3
2018-06-07T10:10:00.884Z,1016.2
2018-06-07T10:15:00.604Z,1016.3
2018-06-07T10:20:00.853Z,1016.3
2018-06-07T10:25:00.687Z,1016.2
2018-06-07T10:30:00.562Z,1016.2
2018-06-07T10:35:00.796Z,1016.2
2018-06-07T10:40:00.705Z,1016.2
2018-06-07T10:45:00.682Z,1016.2
2018-06-07T10:50:00.513Z,1016.2
2018-06-07T10:55:00.415Z,1016.2
2018-06-07T11:00:00.454Z,1016.2
2018-06-07T11:05:00.817Z,1016.2
2018-06-07T11:10:00.463Z,1016.2
2018-06-07T11:15:00.530Z,1016.1
2018-06-07T11:20:00.763Z,1016.1
2018-06-07T11:25:00.673Z,1016.1
2018-06-07T11:30:00.530Z,1016.1
2018-06-07T11:35:00.570Z,1016
2018-06-07T11:40:00.418Z,1016
2018-06-07T11:45:00.665Z,1016
2018-06-07T11:50:00.585Z,1016
2018-06-07T11:55:00.425Z,1015.9
2018-06-07T12:00:00.658Z,1015.9
2018-06-07T12:05:00.357Z,1016
2018-06-07T12:10:00.728Z,1015.9
2018-06-07T12:15:00.361Z,1015.9
2018-06-07T12:20:00.652Z,1015.9
2018-06-07T12:25:00.332Z,1015.9
2018-06-07T12:30:00.537Z,1015.8
2018-06-07T12:35:00.500Z,1015.8
2018-06-07T12:40:00.723Z,1015.8
2018-06-07T12:45:00.492Z,1015.7
2018-06-07T12:50:00.483Z,1015.7
2018-06-07T12:55:00.465Z,1015.7
2018-06-07T13:00:00.541Z,1015.6
2018-06-07T13:05:00.338Z,1015.6
2018-06-07T13:10:00.391Z,1015.6
2018-06-07T13:15:00.568Z,1015.5
2018-06-07T13:20:00.512Z,1015.5
2018-06-07T13:25:00.184Z,1015.5
2018-06-07T13:30:00.277Z,1015.4
2018-06-07T13:35:00.413Z,1015.5
2018-06-07T13:40:00.451Z,1015.4
2018-06-07T13:45:00.478Z,1015.5
2018-06-07T13:50:00.458Z,1015.4
2018-06-07T13:55:00.308Z,1015.4
2018-06-07T14:00:00.449Z,1015.5
2018-06-07T14:05:00.276Z,1015.5
2018-06-07T14:10:00.174Z,1015.4
2018-06-07T14:15:00.500Z,1015.4
2018-06-07T14:20:00.233Z,1015.4
2018-06-07T14:25:00.509Z,1015.3
2018-06-07T14:30:00.379Z,1015.3
2018-06-07T14:35:00.377Z,1015.3
2018-06-07T14:40:00.205Z,1015.3
2018-06-07T14:45:00.209Z,1015.3
2018-06-07T14:50:00.109Z,1015.2
2018-06-07T14:55:00.214Z,1015.2
2018-06-07T15:00:00.152Z,1015.2
2018-06-07T15:05:00.220Z,1015.2
2018-06-07T15:10:00.371Z,1015.3
2018-06-07T15:15:00.060Z,1015.2
2018-06-07T15:20:00.235Z,1015.1
2018-06-07T15:25:00.282Z,1015
2018-06-07T15:30:00.271Z,1015.1
2018-06-07T15:35:00.166Z,1015.1
2018-06-07T15:40:00.391Z,1015.1
2018-06-07T15:45:00.207Z,1015.2
2018-06-07T15:50:00.346Z,1015.2
2018-06-07T15:55:00.287Z,1015.2
2018-06-07T16:00:00.110Z,1015.1
2018-06-07T16:04:59.987Z,1015
2018-06-07T16:10:00.058Z,1015
2018-06-07T16:15:00.347Z,1015
2018-06-07T16:20:00.173Z,1014.9
2018-06-07T16:25:00.101Z,1014.9
2018-06-07T16:29:59.980Z,1014.9
2018-06-07T16:35:00.340Z,1015
2018-06-07T16:40:00.179Z,1015
2018-06-07T16:45:00.095Z,1015
2018-06-07T16:50:00.175Z,1015
2018-06-07T16:55:00.085Z,1015
2018-06-07T17:00:00.083Z,1015
2018-06-07T17:05:00.162Z,1014.9
2018-06-07T17:10:00.220Z,1014.9
2018-06-07T17:15:00.188Z,1014.9
2018-06-07T17:20:00.009Z,1014.9
2018-06-07T17:25:00.019Z,1014.8
2018-06-07T17:29:59.997Z,1014.8
2018-06-07T17:35:00.236Z,1014.8
2018-06-07T17:39:59.930Z,1014.9
2018-06-07T17:44:59.884Z,1014.9
2018-06-07T17:49:59.916Z,1015
2018-06-07T17:54:59.882Z,1015
2018-06-07T17:59:59.853Z,1015.1
2018-06-07T18:05:00.161Z,1015.1
2018-06-07T18:10:00.145Z,1015.2
2018-06-07T18:14:59.897Z,1015.2
2018-06-07T18:19:59.854Z,1015.3
2018-06-07T18:24:59.887Z,1015.3
2018-06-07T18:30:00.180Z,1015.2
2018-06-07T18:35:00.226Z,1015.3
2018-06-07T18:40:00.043Z,1015.3
2018-06-07T18:44:59.794Z,1015.4
2018-06-07T18:49:59.980Z,1015.4
2018-06-07T18:54:59.920Z,1015.4
2018-06-07T18:59:59.896Z,1015.4
2018-06-07T19:04:59.906Z,1015.4
2018-06-07T19:10:00.101Z,1015.4
2018-06-07T19:14:59.811Z,1015.4
2018-06-07T19:20:00.046Z,1015.5
2018-06-07T19:25:00.060Z,1015.5
2018-06-07T19:30:00.088Z,1015.5
2018-06-07T19:34:59.782Z,1015.5
2018-06-07T19:39:59.970Z,1015.5
2018-06-07T19:44:59.872Z,1015.5
2018-06-07T19:49:59.843Z,1015.5
2018-06-07T19:54:59.857Z,1015.4
2018-06-07T20:00:00.111Z,1015.4
2018-06-07T20:05:00.084Z,1015.4
2018-06-07T20:10:00.024Z,1015.5
2018-06-07T20:14:59.940Z,1015.6
2018-06-07T20:19:59.691Z,1015.7
2018-06-07T20:24:59.814Z,1015.9
2018-06-07T20:29:59.747Z,1015.9
2018-06-07T20:34:59.781Z,1016
2018-06-07T20:39:59.907Z,1015.9
2018-06-07T20:45:00.025Z,1015.9
2018-06-07T20:50:00.027Z,1015.9
2018-06-07T20:54:59.986Z,1016
2018-06-07T20:59:59.829Z,1016
2018-06-07T21:04:59.886Z,1016
2018-06-07T21:09:59.770Z,1015.9
2018-06-07T21:15:00.975Z,1015.9
2018-06-07T21:19:59.983Z,1015.9
2018-06-07T21:50:06.681Z,1016.1
2018-06-07T21:55:02.918Z,1016.1
2018-06-07T22:00:03.131Z,1016.1
2018-06-07T22:05:03.333Z,1016.1
2018-06-07T22:10:02.774Z,1016.1
2018-06-07T22:15:02.908Z,1016.1
2018-06-07T22:20:03.225Z,1016.1
2018-06-07T22:25:02.863Z,1016.1
2018-06-07T22:30:02.997Z,1016.2
2018-06-07T22:35:02.528Z,1016.1
2018-06-07T22:40:03.220Z,1016
2018-06-07T22:45:02.848Z,1016
2018-06-07T22:50:02.996Z,1015.9
2018-06-07T22:55:02.867Z,1015.9
2018-06-07T23:00:02.712Z,1015.9
2018-06-07T23:05:02.960Z,1015.9
2018-06-07T23:10:03.467Z,1015.9
2018-06-07T23:15:02.947Z,1015.9
2018-06-07T23:20:02.675Z,1015.9
2018-06-07T23:25:02.562Z,1015.8
2018-06-07T23:30:03.269Z,1015.9
2018-06-07T23:35:02.859Z,1015.9
2018-06-07T23:40:02.926Z,1015.9
2018-06-07T23:45:02.795Z,1015.8
2018-06-07T23:50:03.031Z,1015.8
2018-06-07T23:55:02.868Z,1015.8
